sensor_id;sensor_type;location;lat;lon;timestamp;temperature;humidity
61000;SHT31;46879;45.658;11.814;2023-11-21T00:01:39;17.33;73.59
61000;SHT31;46879;45.658;11.814;2023-11-21T00:06:40;17.33;73.73
61000;SHT31;46879;45.658;11.814;2023-11-21T00:11:41;17.32;73.76
61000;SHT31;46879;45.658;11.814;2023-11-21T00:16:42;17.30;73.62
61000;SHT31;46879;45.658;11.814;2023-11-21T00:21:43;17.32;73.69
61000;SHT31;46879;45.658;11.814;2023-11-21T00:26:45;17.33;73.68
61000;SHT31;46879;45.658;11.814;2023-11-21T00:31:45;17.33;73.70
61000;SHT31;46879;45.658;11.814;2023-11-21T00:36:46;17.34;73.55
61000;SHT31;46879;45.658;11.814;2023-11-21T00:41:46;17.33;73.64
61000;SHT31;46879;45.658;11.814;2023-11-21T00:46:47;17.33;73.57
61000;SHT31;46879;45.658;11.814;2023-11-21T00:51:47;17.32;73.76
61000;SHT31;46879;45.658;11.814;2023-11-21T00:56:48;17.30;73.73
61000;SHT31;46879;45.658;11.814;2023-11-21T01:01:49;17.29;73.66
61000;SHT31;46879;45.658;11.814;2023-11-21T01:06:49;17.27;73.82
61000;SHT31;46879;45.658;11.814;2023-11-21T01:11:50;17.27;73.84
61000;SHT31;46879;45.658;11.814;2023-11-21T01:16:52;17.26;73.90
61000;SHT31;46879;45.658;11.814;2023-11-21T01:21:53;17.30;73.68
61000;SHT31;46879;45.658;11.814;2023-11-21T01:26:54;17.29;73.84
61000;SHT31;46879;45.658;11.814;2023-11-21T01:31:54;17.27;73.74
61000;SHT31;46879;45.658;11.814;2023-11-21T01:36:55;17.27;73.77
61000;SHT31;46879;45.658;11.814;2023-11-21T01:41:56;17.26;73.79
61000;SHT31;46879;45.658;11.814;2023-11-21T01:46:58;17.29;73.66
61000;SHT31;46879;45.658;11.814;2023-11-21T01:51:59;17.25;73.71
61000;SHT31;46879;45.658;11.814;2023-11-21T01:57:00;17.29;73.69
61000;SHT31;46879;45.658;11.814;2023-11-21T02:02:06;17.26;73.71
61000;SHT31;46879;45.658;11.814;2023-11-21T02:07:07;17.26;73.73
61000;SHT31;46879;45.658;11.814;2023-11-21T02:12:08;17.25;73.76
61000;SHT31;46879;45.658;11.814;2023-11-21T02:17:10;17.25;73.63
61000;SHT31;46879;45.658;11.814;2023-11-21T02:22:13;17.25;73.77
61000;SHT31;46879;45.658;11.814;2023-11-21T02:27:16;17.25;73.83
61000;SHT31;46879;45.658;11.814;2023-11-21T02:32:22;17.25;73.78
61000;SHT31;46879;45.658;11.814;2023-11-21T02:37:23;17.20;73.91
61000;SHT31;46879;45.658;11.814;2023-11-21T02:42:24;17.23;73.78
61000;SHT31;46879;45.658;11.814;2023-11-21T02:47:24;17.23;74.01
61000;SHT31;46879;45.658;11.814;2023-11-21T02:52:25;17.23;73.93
61000;SHT31;46879;45.658;11.814;2023-11-21T02:57:25;17.22;73.94
61000;SHT31;46879;45.658;11.814;2023-11-21T03:02:26;17.23;73.90
61000;SHT31;46879;45.658;11.814;2023-11-21T03:07:27;17.22;73.96
61000;SHT31;46879;45.658;11.814;2023-11-21T03:12:27;17.23;73.89
61000;SHT31;46879;45.658;11.814;2023-11-21T03:17:28;17.26;73.83
61000;SHT31;46879;45.658;11.814;2023-11-21T03:22:29;17.19;74.07
61000;SHT31;46879;45.658;11.814;2023-11-21T03:27:30;17.22;74.05
61000;SHT31;46879;45.658;11.814;2023-11-21T03:32:30;17.20;73.82
61000;SHT31;46879;45.658;11.814;2023-11-21T03:37:33;17.20;73.98
61000;SHT31;46879;45.658;11.814;2023-11-21T03:42:34;17.20;73.92
61000;SHT31;46879;45.658;11.814;2023-11-21T03:47:35;17.19;73.89
61000;SHT31;46879;45.658;11.814;2023-11-21T03:52:36;17.23;73.96
61000;SHT31;46879;45.658;11.814;2023-11-21T03:57:37;17.18;73.84
61000;SHT31;46879;45.658;11.814;2023-11-21T04:02:38;17.18;73.86
61000;SHT31;46879;45.658;11.814;2023-11-21T04:07:38;17.18;73.87
61000;SHT31;46879;45.658;11.814;2023-11-21T04:12:39;17.16;73.93
61000;SHT31;46879;45.658;11.814;2023-11-21T04:17:40;17.18;73.76
61000;SHT31;46879;45.658;11.814;2023-11-21T04:22:43;17.18;73.95
61000;SHT31;46879;45.658;11.814;2023-11-21T04:27:45;17.16;73.91
61000;SHT31;46879;45.658;11.814;2023-11-21T04:32:45;17.18;73.86
61000;SHT31;46879;45.658;11.814;2023-11-21T04:37:46;17.18;73.95
61000;SHT31;46879;45.658;11.814;2023-11-21T04:42:47;17.15;73.94
61000;SHT31;46879;45.658;11.814;2023-11-21T04:47:48;17.18;73.82
61000;SHT31;46879;45.658;11.814;2023-11-21T04:52:49;17.16;74.16
61000;SHT31;46879;45.658;11.814;2023-11-21T04:57:49;17.15;74.08
61000;SHT31;46879;45.658;11.814;2023-11-21T05:02:50;17.15;74.01
61000;SHT31;46879;45.658;11.814;2023-11-21T05:07:51;17.15;73.97
61000;SHT31;46879;45.658;11.814;2023-11-21T05:12:53;17.16;74.11
61000;SHT31;46879;45.658;11.814;2023-11-21T05:17:54;17.15;74.04
61000;SHT31;46879;45.658;11.814;2023-11-21T05:22:55;17.14;73.90
61000;SHT31;46879;45.658;11.814;2023-11-21T05:27:56;17.14;74.04
61000;SHT31;46879;45.658;11.814;2023-11-21T05:32:56;17.14;74.03
61000;SHT31;46879;45.658;11.814;2023-11-21T05:37:57;17.12;74.19
61000;SHT31;46879;45.658;11.814;2023-11-21T05:42:57;17.14;74.06
61000;SHT31;46879;45.658;11.814;2023-11-21T05:47:58;17.11;74.07
61000;SHT31;46879;45.658;11.814;2023-11-21T05:52:59;17.09;74.06
61000;SHT31;46879;45.658;11.814;2023-11-21T05:58:00;17.12;74.05
61000;SHT31;46879;45.658;11.814;2023-11-21T06:03:01;17.14;73.99
61000;SHT31;46879;45.658;11.814;2023-11-21T06:08:02;17.09;74.27
61000;SHT31;46879;45.658;11.814;2023-11-21T06:13:02;17.11;74.15
61000;SHT31;46879;45.658;11.814;2023-11-21T06:18:04;17.11;74.14
61000;SHT31;46879;45.658;11.814;2023-11-21T06:23:07;17.11;74.20
61000;SHT31;46879;45.658;11.814;2023-11-21T06:28:07;17.14;74.11
61000;SHT31;46879;45.658;11.814;2023-11-21T06:33:08;17.14;74.11
61000;SHT31;46879;45.658;11.814;2023-11-21T06:38:08;17.09;74.39
61000;SHT31;46879;45.658;11.814;2023-11-21T06:43:09;17.11;74.38
61000;SHT31;46879;45.658;11.814;2023-11-21T06:48:10;17.11;73.62
61000;SHT31;46879;45.658;11.814;2023-11-21T06:53:11;17.09;73.87
61000;SHT31;46879;45.658;11.814;2023-11-21T06:58:11;17.11;73.51
61000;SHT31;46879;45.658;11.814;2023-11-21T07:03:12;17.09;73.11
61000;SHT31;46879;45.658;11.814;2023-11-21T07:08:13;17.11;72.79
61000;SHT31;46879;45.658;11.814;2023-11-21T07:13:14;17.12;73.04
61000;SHT31;46879;45.658;11.814;2023-11-21T07:18:15;17.11;72.75
61000;SHT31;46879;45.658;11.814;2023-11-21T07:23:15;17.14;72.52
61000;SHT31;46879;45.658;11.814;2023-11-21T07:28:16;17.14;72.20
61000;SHT31;46879;45.658;11.814;2023-11-21T07:33:17;17.11;71.90
61000;SHT31;46879;45.658;11.814;2023-11-21T07:38:17;17.11;71.72
61000;SHT31;46879;45.658;11.814;2023-11-21T07:43:18;17.09;71.52
61000;SHT31;46879;45.658;11.814;2023-11-21T07:48:20;17.11;71.35
61000;SHT31;46879;45.658;11.814;2023-11-21T07:53:20;17.12;70.98
61000;SHT31;46879;45.658;11.814;2023-11-21T07:58:22;17.09;70.69
61000;SHT31;46879;45.658;11.814;2023-11-21T08:03:23;17.09;70.51
61000;SHT31;46879;45.658;11.814;2023-11-21T08:08:24;17.11;70.08
61000;SHT31;46879;45.658;11.814;2023-11-21T08:13:26;17.09;70.28
61000;SHT31;46879;45.658;11.814;2023-11-21T08:18:27;17.09;70.05
61000;SHT31;46879;45.658;11.814;2023-11-21T08:23:28;17.11;70.00
61000;SHT31;46879;45.658;11.814;2023-11-21T08:28:28;17.12;69.71
61000;SHT31;46879;45.658;11.814;2023-11-21T08:33:29;17.12;69.61
61000;SHT31;46879;45.658;11.814;2023-11-21T08:38:30;17.11;69.71
61000;SHT31;46879;45.658;11.814;2023-11-21T08:43:30;17.11;69.84
61000;SHT31;46879;45.658;11.814;2023-11-21T08:48:31;17.08;69.73
61000;SHT31;46879;45.658;11.814;2023-11-21T08:53:32;17.11;69.92
61000;SHT31;46879;45.658;11.814;2023-11-21T08:58:33;17.09;69.93
61000;SHT31;46879;45.658;11.814;2023-11-21T09:03:33;17.09;69.48
61000;SHT31;46879;45.658;11.814;2023-11-21T09:08:35;17.09;69.62
61000;SHT31;46879;45.658;11.814;2023-11-21T09:13:35;17.11;69.74
61000;SHT31;46879;45.658;11.814;2023-11-21T09:18:36;17.12;69.85
61000;SHT31;46879;45.658;11.814;2023-11-21T09:23:37;17.12;69.74
61000;SHT31;46879;45.658;11.814;2023-11-21T09:28:38;17.11;70.08
61000;SHT31;46879;45.658;11.814;2023-11-21T09:33:39;17.09;70.74
61000;SHT31;46879;45.658;11.814;2023-11-21T09:38:41;17.11;70.84
61000;SHT31;46879;45.658;11.814;2023-11-21T09:43:46;17.12;70.88
61000;SHT31;46879;45.658;11.814;2023-11-21T09:48:51;17.11;70.84
61000;SHT31;46879;45.658;11.814;2023-11-21T09:53:56;17.09;70.87
61000;SHT31;46879;45.658;11.814;2023-11-21T09:58:59;17.09;70.93
61000;SHT31;46879;45.658;11.814;2023-11-21T10:04:04;17.08;70.91
61000;SHT31;46879;45.658;11.814;2023-11-21T10:09:14;17.11;70.93
61000;SHT31;46879;45.658;11.814;2023-11-21T10:14:18;17.14;70.96
61000;SHT31;46879;45.658;11.814;2023-11-21T10:19:21;17.09;70.90
61000;SHT31;46879;45.658;11.814;2023-11-21T10:24:22;17.11;70.87
61000;SHT31;46879;45.658;11.814;2023-11-21T10:29:23;17.09;70.86
61000;SHT31;46879;45.658;11.814;2023-11-21T10:34:24;17.12;70.88
61000;SHT31;46879;45.658;11.814;2023-11-21T10:39:25;17.14;70.75
61000;SHT31;46879;45.658;11.814;2023-11-21T10:44:31;17.08;70.84
61000;SHT31;46879;45.658;11.814;2023-11-21T10:49:32;17.12;70.84
61000;SHT31;46879;45.658;11.814;2023-11-21T10:54:34;17.12;70.86
61000;SHT31;46879;45.658;11.814;2023-11-21T10:59:36;17.12;70.88
61000;SHT31;46879;45.658;11.814;2023-11-21T11:04:37;17.15;70.84
61000;SHT31;46879;45.658;11.814;2023-11-21T11:09:38;17.09;70.84
61000;SHT31;46879;45.658;11.814;2023-11-21T11:14:41;17.12;70.85
61000;SHT31;46879;45.658;11.814;2023-11-21T11:19:41;17.12;70.86
61000;SHT31;46879;45.658;11.814;2023-11-21T11:41:33;17.12;71.05
61000;SHT31;46879;45.658;11.814;2023-11-21T11:46:45;17.12;71.03
61000;SHT31;46879;45.658;11.814;2023-11-21T11:51:46;17.12;71.00
61000;SHT31;46879;45.658;11.814;2023-11-21T11:56:47;17.14;70.91
61000;SHT31;46879;45.658;11.814;2023-11-21T12:01:49;17.14;70.89
61000;SHT31;46879;45.658;11.814;2023-11-21T12:06:53;17.14;70.81
61000;SHT31;46879;45.658;11.814;2023-11-21T12:11:55;17.12;70.82
61000;SHT31;46879;45.658;11.814;2023-11-21T12:16:59;17.14;70.81
61000;SHT31;46879;45.658;11.814;2023-11-21T12:22:00;17.15;70.73
61000;SHT31;46879;45.658;11.814;2023-11-21T12:27:00;17.12;70.37
61000;SHT31;46879;45.658;11.814;2023-11-21T12:32:01;17.14;70.26
61000;SHT31;46879;45.658;11.814;2023-11-21T12:37:02;17.12;70.05
61000;SHT31;46879;45.658;11.814;2023-11-21T12:42:03;17.14;69.61
61000;SHT31;46879;45.658;11.814;2023-11-21T12:47:04;17.14;69.71
61000;SHT31;46879;45.658;11.814;2023-11-21T12:52:06;17.14;69.62
61000;SHT31;46879;45.658;11.814;2023-11-21T12:57:06;17.11;69.52
61000;SHT31;46879;45.658;11.814;2023-11-21T13:02:08;17.12;69.73
61000;SHT31;46879;45.658;11.814;2023-11-21T13:07:09;17.14;69.99
61000;SHT31;46879;45.658;11.814;2023-11-21T13:12:15;17.12;70.00
61000;SHT31;46879;45.658;11.814;2023-11-21T13:17:18;17.11;69.94
61000;SHT31;46879;45.658;11.814;2023-11-21T13:22:19;17.09;70.03
61000;SHT31;46879;45.658;11.814;2023-11-21T13:27:21;17.14;70.00
61000;SHT31;46879;45.658;11.814;2023-11-21T13:32:21;17.12;70.14
61000;SHT31;46879;45.658;11.814;2023-11-21T13:37:22;17.12;70.21
61000;SHT31;46879;45.658;11.814;2023-11-21T13:42:25;17.12;70.21
61000;SHT31;46879;45.658;11.814;2023-11-21T13:47:28;17.14;70.26
61000;SHT31;46879;45.658;11.814;2023-11-21T13:52:31;17.14;70.29
61000;SHT31;46879;45.658;11.814;2023-11-21T13:57:34;17.12;70.24
61000;SHT31;46879;45.658;11.814;2023-11-21T14:02:35;17.12;70.24
61000;SHT31;46879;45.658;11.814;2023-11-21T14:07:39;17.14;70.33
61000;SHT31;46879;45.658;11.814;2023-11-21T14:12:48;17.15;70.38
61000;SHT31;46879;45.658;11.814;2023-11-21T14:17:48;17.12;70.33
61000;SHT31;46879;45.658;11.814;2023-11-21T14:22:49;17.15;70.36
61000;SHT31;46879;45.658;11.814;2023-11-21T14:27:51;17.14;70.36
61000;SHT31;46879;45.658;11.814;2023-11-21T14:32:51;17.14;70.31
61000;SHT31;46879;45.658;11.814;2023-11-21T14:37:52;17.12;70.35
61000;SHT31;46879;45.658;11.814;2023-11-21T14:42:53;17.12;70.31
61000;SHT31;46879;45.658;11.814;2023-11-21T14:47:56;17.12;70.41
61000;SHT31;46879;45.658;11.814;2023-11-21T14:53:06;17.12;70.54
61000;SHT31;46879;45.658;11.814;2023-11-21T14:58:07;17.14;70.54
61000;SHT31;46879;45.658;11.814;2023-11-21T15:03:13;17.14;70.54
61000;SHT31;46879;45.658;11.814;2023-11-21T15:08:42;17.15;70.53
61000;SHT31;46879;45.658;11.814;2023-11-21T15:13:43;17.12;70.52
61000;SHT31;46879;45.658;11.814;2023-11-21T15:18:44;17.11;70.46
61000;SHT31;46879;45.658;11.814;2023-11-21T15:23:44;17.12;70.41
61000;SHT31;46879;45.658;11.814;2023-11-21T15:28:45;17.14;70.41
61000;SHT31;46879;45.658;11.814;2023-11-21T15:33:45;17.12;70.41
61000;SHT31;46879;45.658;11.814;2023-11-21T15:38:46;17.11;70.42
61000;SHT31;46879;45.658;11.814;2023-11-21T15:43:47;17.11;70.36
61000;SHT31;46879;45.658;11.814;2023-11-21T15:48:49;17.12;70.38
61000;SHT31;46879;45.658;11.814;2023-11-21T15:53:53;17.11;70.34
61000;SHT31;46879;45.658;11.814;2023-11-21T15:58:53;17.11;70.38
61000;SHT31;46879;45.658;11.814;2023-11-21T16:03:54;17.09;70.34
61000;SHT31;46879;45.658;11.814;2023-11-21T16:08:55;17.09;70.33
61000;SHT31;46879;45.658;11.814;2023-11-21T16:13:58;17.11;70.30
61000;SHT31;46879;45.658;11.814;2023-11-21T16:18:59;17.09;70.28
61000;SHT31;46879;45.658;11.814;2023-11-21T16:23:59;17.09;70.26
61000;SHT31;46879;45.658;11.814;2023-11-21T16:29:00;17.11;70.24
61000;SHT31;46879;45.658;11.814;2023-11-21T16:34:12;17.11;70.23
61000;SHT31;46879;45.658;11.814;2023-11-21T16:39:17;17.11;70.14
61000;SHT31;46879;45.658;11.814;2023-11-21T16:44:21;17.11;70.25
61000;SHT31;46879;45.658;11.814;2023-11-21T16:49:22;17.11;70.22
61000;SHT31;46879;45.658;11.814;2023-11-21T16:54:22;17.09;70.27
61000;SHT31;46879;45.658;11.814;2023-11-21T16:59:24;17.12;70.30
61000;SHT31;46879;45.658;11.814;2023-11-21T17:04:24;17.12;70.24
61000;SHT31;46879;45.658;11.814;2023-11-21T17:09:25;17.12;70.37
61000;SHT31;46879;45.658;11.814;2023-11-21T17:14:26;17.12;70.40
61000;SHT31;46879;45.658;11.814;2023-11-21T17:19:26;17.14;70.41
61000;SHT31;46879;45.658;11.814;2023-11-21T17:24:31;17.12;70.43
61000;SHT31;46879;45.658;11.814;2023-11-21T17:29:33;17.14;70.40
61000;SHT31;46879;45.658;11.814;2023-11-21T17:34:34;17.14;70.47
61000;SHT31;46879;45.658;11.814;2023-11-21T17:39:34;17.15;70.41
61000;SHT31;46879;45.658;11.814;2023-11-21T17:44:35;17.12;70.47
61000;SHT31;46879;45.658;11.814;2023-11-21T17:49:36;17.12;70.67
61000;SHT31;46879;45.658;11.814;2023-11-21T17:54:36;17.16;71.04
61000;SHT31;46879;45.658;11.814;2023-11-21T17:59:40;17.14;71.10
61000;SHT31;46879;45.658;11.814;2023-11-21T18:04:41;17.14;71.20
61000;SHT31;46879;45.658;11.814;2023-11-21T18:09:41;17.16;71.27
61000;SHT31;46879;45.658;11.814;2023-11-21T18:14:42;17.14;71.30
61000;SHT31;46879;45.658;11.814;2023-11-21T18:19:44;17.18;71.63
61000;SHT31;46879;45.658;11.814;2023-11-21T18:24:45;17.18;72.43
61000;SHT31;46879;45.658;11.814;2023-11-21T18:29:45;17.19;72.67
61000;SHT31;46879;45.658;11.814;2023-11-21T18:34:46;17.19;72.66
61000;SHT31;46879;45.658;11.814;2023-11-21T18:39:47;17.20;72.84
61000;SHT31;46879;45.658;11.814;2023-11-21T18:44:48;17.23;73.83
61000;SHT31;46879;45.658;11.814;2023-11-21T18:49:49;17.22;74.20
61000;SHT31;46879;45.658;11.814;2023-11-21T18:54:49;17.22;74.30
61000;SHT31;46879;45.658;11.814;2023-11-21T18:59:50;17.26;73.96
61000;SHT31;46879;45.658;11.814;2023-11-21T19:04:51;17.23;73.88
61000;SHT31;46879;45.658;11.814;2023-11-21T19:09:51;17.23;74.06
61000;SHT31;46879;45.658;11.814;2023-11-21T19:14:53;17.27;74.06
61000;SHT31;46879;45.658;11.814;2023-11-21T19:19:53;17.27;73.81
61000;SHT31;46879;45.658;11.814;2023-11-21T19:24:54;17.26;73.88
61000;SHT31;46879;45.658;11.814;2023-11-21T19:29:55;17.27;73.78
61000;SHT31;46879;45.658;11.814;2023-11-21T19:34:55;17.26;74.04
61000;SHT31;46879;45.658;11.814;2023-11-21T19:39:56;17.27;73.75
61000;SHT31;46879;45.658;11.814;2023-11-21T19:44:57;17.29;73.74
61000;SHT31;46879;45.658;11.814;2023-11-21T19:49:57;17.29;73.36
61000;SHT31;46879;45.658;11.814;2023-11-21T19:54:58;17.34;73.72
61000;SHT31;46879;45.658;11.814;2023-11-21T19:59:59;17.36;75.68
61000;SHT31;46879;45.658;11.814;2023-11-21T20:05:00;17.37;75.26
61000;SHT31;46879;45.658;11.814;2023-11-21T20:10:01;17.37;75.12
61000;SHT31;46879;45.658;11.814;2023-11-21T20:15:03;17.37;75.16
61000;SHT31;46879;45.658;11.814;2023-11-21T20:20:04;17.37;75.35
61000;SHT31;46879;45.658;11.814;2023-11-21T20:25:05;17.39;75.05
61000;SHT31;46879;45.658;11.814;2023-11-21T20:30:07;17.40;74.47
61000;SHT31;46879;45.658;11.814;2023-11-21T20:35:08;17.40;75.38
61000;SHT31;46879;45.658;11.814;2023-11-21T20:40:11;17.42;75.14
61000;SHT31;46879;45.658;11.814;2023-11-21T20:45:13;17.42;74.94
61000;SHT31;46879;45.658;11.814;2023-11-21T20:50:13;17.40;74.88
61000;SHT31;46879;45.658;11.814;2023-11-21T20:55:16;17.43;75.04
61000;SHT31;46879;45.658;11.814;2023-11-21T21:00:17;17.42;74.74
61000;SHT31;46879;45.658;11.814;2023-11-21T21:05:19;17.40;74.47
61000;SHT31;46879;45.658;11.814;2023-11-21T21:10:21;17.40;74.79
61000;SHT31;46879;45.658;11.814;2023-11-21T21:15:22;17.40;74.41
61000;SHT31;46879;45.658;11.814;2023-11-21T21:20:43;17.40;74.78
61000;SHT31;46879;45.658;11.814;2023-11-21T21:25:45;17.42;74.53
61000;SHT31;46879;45.658;11.814;2023-11-21T21:30:46;17.39;74.45
61000;SHT31;46879;45.658;11.814;2023-11-21T21:35:47;17.42;74.57
61000;SHT31;46879;45.658;11.814;2023-11-21T21:40:47;17.40;74.26
61000;SHT31;46879;45.658;11.814;2023-11-21T21:45:50;17.42;74.51
61000;SHT31;46879;45.658;11.814;2023-11-21T21:50:50;17.43;74.34
61000;SHT31;46879;45.658;11.814;2023-11-21T21:55:51;17.42;74.57
61000;SHT31;46879;45.658;11.814;2023-11-21T22:00:51;17.42;74.45
61000;SHT31;46879;45.658;11.814;2023-11-21T22:05:52;17.42;73.99
61000;SHT31;46879;45.658;11.814;2023-11-21T22:10:53;17.42;74.19
61000;SHT31;46879;45.658;11.814;2023-11-21T22:15:53;17.40;74.18
61000;SHT31;46879;45.658;11.814;2023-11-21T22:20:54;17.40;74.02
61000;SHT31;46879;45.658;11.814;2023-11-21T22:25:55;17.43;73.73
61000;SHT31;46879;45.658;11.814;2023-11-21T22:30:55;17.43;73.98
61000;SHT31;46879;45.658;11.814;2023-11-21T22:35:56;17.43;73.88
61000;SHT31;46879;45.658;11.814;2023-11-21T22:40:56;17.42;74.25
61000;SHT31;46879;45.658;11.814;2023-11-21T22:45:57;17.40;74.38
61000;SHT31;46879;45.658;11.814;2023-11-21T22:50:58;17.42;74.18
61000;SHT31;46879;45.658;11.814;2023-11-21T22:55:58;17.40;74.22
61000;SHT31;46879;45.658;11.814;2023-11-21T23:01:00;17.40;74.23
61000;SHT31;46879;45.658;11.814;2023-11-21T23:06:00;17.40;74.18
61000;SHT31;46879;45.658;11.814;2023-11-21T23:11:01;17.40;74.26
61000;SHT31;46879;45.658;11.814;2023-11-21T23:16:02;17.39;74.34
61000;SHT31;46879;45.658;11.814;2023-11-21T23:21:02;17.37;74.36
61000;SHT31;46879;45.658;11.814;2023-11-21T23:26:03;17.36;74.36
61000;SHT31;46879;45.658;11.814;2023-11-21T23:31:04;17.37;74.34
61000;SHT31;46879;45.658;11.814;2023-11-21T23:36:05;17.36;74.42
61000;SHT31;46879;45.658;11.814;2023-11-21T23:41:06;17.34;74.39
61000;SHT31;46879;45.658;11.814;2023-11-21T23:46:06;17.37;74.48
61000;SHT31;46879;45.658;11.814;2023-11-21T23:51:07;17.36;74.49
61000;SHT31;46879;45.658;11.814;2023-11-21T23:56:10;17.32;74.48
